createdAt,value
2023-05-08T00:01:43.396Z,19.90
2023-05-08T00:04:12.298Z,18.77
2023-05-08T00:06:40.796Z,17.87
2023-05-08T00:09:09.914Z,19.27
2023-05-08T00:11:38.967Z,17.30
2023-05-08T00:14:07.930Z,19.73
2023-05-08T00:16:37.750Z,17.93
2023-05-08T00:19:06.623Z,20.03
2023-05-08T00:21:35.017Z,20.27
2023-05-08T00:24:03.376Z,18.87
2023-05-08T00:26:31.937Z,19.00
2023-05-08T00:29:00.732Z,17.20
2023-05-08T00:31:29.099Z,18.60
2023-05-08T00:33:58.933Z,18.07
2023-05-08T00:36:28.491Z,16.83
2023-05-08T00:38:56.870Z,17.93
2023-05-08T00:41:25.323Z,18.67
2023-05-08T00:43:54.165Z,18.73
2023-05-08T00:46:23.035Z,18.40
2023-05-08T00:48:51.817Z,18.47
2023-05-08T00:51:22.273Z,19.07
2023-05-08T00:53:51.561Z,17.63
2023-05-08T00:56:22.037Z,19.30
2023-05-08T00:58:51.545Z,17.60
2023-05-08T01:01:20.658Z,18.40
2023-05-08T01:03:49.962Z,18.40
2023-05-08T01:06:20.649Z,18.30
2023-05-08T01:08:49.680Z,19.63
2023-05-08T01:11:25.594Z,20.43
2023-05-08T01:14:09.042Z,19.40
2023-05-08T01:16:45.527Z,17.70
2023-05-08T01:19:55.482Z,20.70
2023-05-08T01:22:47.888Z,22.13
2023-05-08T01:25:52.661Z,21.33
2023-05-08T01:29:14.455Z,21.10
2023-05-08T01:32:08.762Z,19.73
2023-05-08T01:34:46.516Z,22.23
2023-05-08T01:37:23.472Z,19.20
2023-05-08T01:40:00.775Z,20.53
2023-05-08T01:42:40.774Z,19.57
2023-05-08T01:45:15.723Z,21.70
2023-05-08T01:47:52.285Z,20.80
2023-05-08T01:50:28.249Z,22.23
2023-05-08T01:53:04.569Z,23.73
2023-05-08T01:55:37.320Z,21.40
2023-05-08T01:58:11.022Z,21.70
2023-05-08T02:00:42.144Z,22.67
2023-05-08T02:03:13.958Z,23.83
2023-05-08T02:05:44.372Z,21.87
2023-05-08T02:08:15.657Z,20.27
2023-05-08T02:10:46.414Z,22.97
2023-05-08T02:13:19.137Z,23.93
2023-05-08T02:15:49.906Z,21.63
2023-05-08T02:18:26.339Z,23.13
2023-05-08T02:20:57.447Z,22.83
2023-05-08T02:23:27.938Z,21.00
2023-05-08T02:25:57.370Z,22.40
2023-05-08T02:28:27.538Z,23.20
2023-05-08T02:30:58.130Z,21.50
2023-05-08T02:33:30.529Z,20.20
2023-05-08T02:36:00.479Z,21.50
2023-05-08T02:38:30.156Z,21.77
2023-05-08T02:41:03.502Z,21.17
2023-05-08T02:43:32.677Z,21.23
2023-05-08T02:46:10.884Z,21.40
2023-05-08T02:48:49.539Z,22.17
2023-05-08T02:51:28.147Z,20.97
2023-05-08T02:54:02.847Z,20.90
2023-05-08T02:56:40.482Z,21.07
2023-05-08T02:59:20.769Z,21.77
2023-05-08T03:01:58.182Z,22.73
2023-05-08T03:04:36.531Z,21.93
2023-05-08T03:07:06.652Z,23.03
2023-05-08T03:09:45.919Z,22.47
2023-05-08T03:12:24.733Z,22.10
2023-05-08T03:15:02.360Z,21.83
2023-05-08T03:17:34.925Z,22.57
2023-05-08T03:20:09.079Z,24.07
2023-05-08T03:22:40.136Z,23.50
2023-05-08T03:25:11.842Z,25.63
2023-05-08T03:27:41.646Z,24.67
2023-05-08T03:30:12.784Z,21.97
2023-05-08T03:32:43.423Z,25.03
2023-05-08T03:35:13.591Z,22.03
2023-05-08T03:37:42.868Z,22.17
2023-05-08T03:40:12.417Z,22.70
2023-05-08T03:42:43.151Z,23.43
2023-05-08T03:45:13.572Z,22.07
2023-05-08T03:47:44.315Z,21.37
2023-05-08T03:50:15.771Z,23.97
2023-05-08T03:52:44.888Z,20.73
2023-05-08T03:55:13.509Z,21.30
2023-05-08T03:57:49.536Z,22.60
2023-05-08T04:00:30.816Z,19.63
2023-05-08T04:03:17.001Z,21.70
2023-05-08T04:06:04.255Z,19.90
2023-05-08T04:08:43.356Z,20.17
2023-05-08T04:11:20.296Z,21.20
2023-05-08T04:14:03.251Z,20.27
2023-05-08T04:16:39.900Z,20.73
2023-05-08T04:19:13.579Z,19.90
2023-05-08T04:21:45.923Z,19.27
2023-05-08T04:24:16.704Z,17.90
2023-05-08T04:26:47.037Z,17.83
2023-05-08T04:29:16.078Z,20.53
2023-05-08T04:31:45.297Z,20.77
2023-05-08T04:34:14.190Z,19.90
2023-05-08T04:36:44.499Z,19.37
2023-05-08T04:39:12.927Z,20.90
2023-05-08T04:41:41.317Z,19.57
2023-05-08T04:44:09.891Z,20.03
2023-05-08T04:46:38.890Z,20.13
2023-05-08T04:49:07.485Z,20.90
2023-05-08T04:51:37.264Z,19.37
2023-05-08T04:54:07.244Z,20.83
2023-05-08T04:56:36.208Z,19.90
2023-05-08T04:59:04.579Z,20.10
2023-05-08T05:01:33.290Z,19.83
2023-05-08T05:04:01.874Z,19.30
2023-05-08T05:06:31.353Z,18.23
2023-05-08T05:08:59.786Z,19.13
2023-05-08T05:11:29.788Z,19.33
2023-05-08T05:13:58.199Z,18.63
2023-05-08T05:16:27.450Z,19.60
2023-05-08T05:18:56.767Z,19.87
2023-05-08T05:21:25.920Z,19.67
2023-05-08T05:23:54.907Z,19.53
2023-05-08T05:26:23.405Z,19.70
2023-05-08T05:28:53.260Z,19.53
2023-05-08T05:31:22.115Z,17.27
2023-05-08T05:33:51.168Z,19.87
2023-05-08T05:36:19.913Z,20.03
2023-05-08T05:38:48.887Z,19.60
2023-05-08T05:41:17.488Z,20.07
2023-05-08T05:43:45.883Z,21.50
2023-05-08T05:46:15.767Z,22.13
2023-05-08T05:48:44.385Z,18.87
2023-05-08T05:51:13.122Z,22.03
2023-05-08T05:53:41.651Z,21.07
2023-05-08T05:56:09.983Z,18.40
2023-05-08T05:58:40.492Z,21.43
2023-05-08T06:01:08.846Z,19.07
2023-05-08T06:03:39.623Z,16.90
2023-05-08T06:06:08.728Z,16.70
2023-05-08T06:08:37.189Z,16.80
2023-05-08T06:11:05.600Z,18.73
2023-05-08T06:13:34.059Z,18.37
2023-05-08T06:16:02.546Z,17.93
2023-05-08T06:18:31.439Z,18.13
2023-05-08T06:21:01.553Z,17.77
2023-05-08T06:23:30.216Z,16.70
2023-05-08T06:26:01.937Z,16.57
2023-05-08T06:28:30.311Z,17.40
2023-05-08T06:30:58.833Z,17.33
2023-05-08T06:33:27.993Z,16.33
2023-05-08T06:35:56.682Z,16.10
2023-05-08T06:38:27.064Z,15.93
2023-05-08T06:40:56.149Z,16.77
2023-05-08T06:43:24.918Z,15.80
2023-05-08T06:45:54.070Z,16.63
2023-05-08T06:48:22.709Z,16.07
2023-05-08T06:50:53.056Z,15.73
2023-05-08T06:53:22.188Z,15.63
2023-05-08T06:55:52.916Z,16.80
2023-05-08T06:58:21.425Z,18.03
2023-05-08T07:00:50.332Z,16.27
2023-05-08T07:03:19.057Z,14.97
2023-05-08T07:05:47.470Z,15.20
2023-05-08T07:08:15.954Z,17.87
2023-05-08T07:10:44.976Z,15.97
2023-05-08T07:13:14.864Z,16.97
2023-05-08T07:15:43.476Z,15.33
2023-05-08T07:18:12.099Z,15.83
2023-05-08T07:20:40.686Z,16.67
2023-05-08T07:23:09.953Z,15.13
2023-05-08T07:25:38.341Z,15.53
2023-05-08T07:28:08.095Z,15.93
2023-05-08T07:30:37.946Z,16.40
2023-05-08T07:33:06.775Z,16.23
2023-05-08T07:35:35.636Z,15.60
2023-05-08T07:38:04.110Z,14.97
2023-05-08T07:40:32.513Z,15.57
2023-05-08T07:43:01.182Z,15.40
2023-05-08T07:45:29.847Z,15.70
2023-05-08T07:48:00.601Z,16.20
2023-05-08T07:50:29.478Z,16.53
2023-05-08T07:52:58.028Z,15.57
2023-05-08T07:55:27.331Z,16.43
2023-05-08T07:57:56.045Z,16.23
2023-05-08T08:00:24.968Z,16.87
2023-05-08T08:02:54.074Z,16.87
2023-05-08T08:05:24.864Z,16.27
2023-05-08T08:07:53.935Z,16.80
2023-05-08T08:10:22.692Z,17.00
2023-05-08T08:12:51.486Z,16.63
2023-05-08T08:15:21.016Z,16.73
2023-05-08T08:17:49.804Z,16.07
2023-05-08T08:20:18.625Z,17.43
2023-05-08T08:22:48.665Z,15.90
2023-05-08T08:25:17.925Z,15.27
2023-05-08T08:27:46.350Z,15.67
2023-05-08T08:30:17.648Z,15.90
2023-05-08T08:32:49.668Z,16.40
2023-05-08T08:35:18.491Z,17.20
2023-05-08T08:37:48.453Z,15.33
2023-05-08T08:40:17.116Z,15.33
2023-05-08T08:42:46.312Z,17.07
2023-05-08T08:45:14.955Z,16.07
2023-05-08T08:47:47.016Z,15.70
2023-05-08T08:50:16.898Z,16.50
2023-05-08T08:52:57.280Z,16.23
2023-05-08T08:55:27.683Z,16.20
2023-05-08T08:58:07.246Z,16.37
2023-05-08T09:00:38.610Z,16.63
2023-05-08T09:03:08.028Z,15.93
2023-05-08T09:05:37.759Z,17.07
2023-05-08T09:08:08.324Z,16.42
2023-05-08T09:10:37.546Z,16.60
2023-05-08T09:13:06.074Z,16.53
2023-05-08T09:15:35.431Z,15.90
2023-05-08T09:18:04.192Z,16.27
2023-05-08T09:20:32.857Z,15.63
2023-05-08T09:23:03.915Z,16.70
2023-05-08T09:25:47.538Z,16.73
2023-05-08T09:28:21.017Z,16.40
2023-05-08T09:30:55.388Z,17.13
2023-05-08T09:33:26.202Z,17.53
2023-05-08T09:35:55.395Z,17.20
2023-05-08T09:38:38.618Z,17.60
2023-05-08T09:41:17.627Z,17.77
2023-05-08T09:44:02.010Z,17.90
2023-05-08T09:46:30.978Z,18.60
2023-05-08T09:49:01.591Z,17.30
2023-05-08T09:51:32.530Z,18.30
2023-05-08T09:54:04.306Z,18.13
2023-05-08T09:56:36.606Z,18.13
2023-05-08T09:59:06.904Z,17.47
2023-05-08T10:01:36.901Z,19.00
2023-05-08T10:04:06.461Z,19.07
2023-05-08T10:06:36.566Z,19.17
2023-05-08T10:09:10.416Z,18.60
2023-05-08T10:11:41.366Z,19.07
2023-05-08T10:14:10.403Z,17.88
2023-05-08T10:16:43.768Z,19.00
2023-05-08T10:19:16.347Z,17.90
2023-05-08T10:21:48.605Z,19.35
2023-05-08T10:24:19.751Z,18.50
2023-05-08T10:27:07.103Z,18.00
2023-05-08T10:29:44.025Z,18.47
2023-05-08T10:32:14.516Z,19.90
2023-05-08T10:34:45.455Z,18.73
2023-05-08T10:37:14.644Z,18.27
2023-05-08T10:39:46.102Z,17.58
2023-05-08T10:42:16.270Z,18.98
2023-05-08T10:44:45.087Z,18.48
2023-05-08T10:47:22.614Z,19.17
2023-05-08T10:50:03.936Z,18.77
2023-05-08T10:52:46.407Z,18.08
2023-05-08T10:55:22.760Z,17.77
2023-05-08T10:58:13.387Z,18.85
2023-05-08T11:01:14.816Z,18.15
2023-05-08T11:03:50.606Z,19.20
2023-05-08T11:06:46.806Z,18.13
2023-05-08T11:09:23.579Z,18.10
2023-05-08T11:12:17.975Z,19.95
2023-05-08T11:15:00.363Z,19.25
2023-05-08T11:17:29.032Z,19.45
2023-05-08T11:20:00.294Z,18.58
2023-05-08T11:22:31.444Z,18.52
2023-05-08T11:25:03.205Z,18.45
2023-05-08T11:27:55.016Z,18.95
2023-05-08T11:30:28.645Z,19.80
2023-05-08T11:33:16.727Z,19.70
2023-05-08T11:35:49.481Z,19.63
2023-05-08T11:38:22.387Z,20.08
2023-05-08T11:40:59.738Z,18.52
2023-05-08T11:43:48.561Z,18.27
2023-05-08T11:46:21.880Z,18.65
2023-05-08T11:48:50.730Z,18.92
2023-05-08T11:51:20.917Z,20.65
2023-05-08T11:53:50.049Z,20.00
2023-05-08T11:56:19.491Z,20.23
2023-05-08T11:58:48.194Z,21.02
2023-05-08T12:01:22.331Z,19.90
2023-05-08T12:03:51.014Z,20.08
2023-05-08T12:06:21.360Z,18.75
2023-05-08T12:08:50.253Z,20.73
2023-05-08T12:11:25.255Z,20.00
2023-05-08T12:13:55.241Z,18.73
2023-05-08T12:16:26.679Z,19.90
2023-05-08T12:18:58.232Z,18.50
2023-05-08T12:21:27.615Z,19.50
2023-05-08T12:23:56.389Z,18.00
2023-05-08T12:26:25.166Z,17.55
2023-05-08T12:28:57.012Z,17.58
2023-05-08T12:31:27.469Z,18.23
2023-05-08T12:33:56.691Z,17.80
2023-05-08T12:36:25.255Z,16.77
2023-05-08T12:38:54.081Z,16.73
2023-05-08T12:41:26.400Z,16.30
2023-05-08T12:43:55.199Z,16.30
2023-05-08T12:46:28.217Z,17.15
2023-05-08T12:49:04.722Z,16.45
2023-05-08T12:51:33.250Z,14.50
2023-05-08T12:54:01.647Z,11.60
2023-05-08T12:56:29.919Z,12.48
2023-05-08T12:59:00.951Z,11.88
2023-05-08T13:01:32.179Z,11.93
2023-05-08T13:04:03.042Z,11.40
2023-05-08T13:06:31.893Z,13.95
2023-05-08T13:09:00.303Z,15.52
2023-05-08T13:11:34.059Z,13.57
2023-05-08T13:14:02.614Z,12.68
2023-05-08T13:16:32.442Z,12.43
2023-05-08T13:19:00.741Z,12.32
2023-05-08T13:21:29.160Z,11.77
2023-05-08T13:23:58.096Z,11.82
2023-05-08T13:26:27.779Z,11.48
2023-05-08T13:28:56.714Z,10.52
2023-05-08T13:31:25.445Z,12.88
2023-05-08T13:33:55.229Z,12.18
2023-05-08T13:36:25.049Z,11.88
2023-05-08T13:38:55.315Z,11.23
2023-05-08T13:41:23.838Z,11.00
2023-05-08T13:43:52.862Z,12.65
2023-05-08T13:46:21.616Z,13.40
2023-05-08T13:48:50.280Z,13.38
2023-05-08T13:51:20.331Z,11.48
2023-05-08T13:53:48.749Z,12.48
2023-05-08T13:56:17.198Z,11.50
2023-05-08T13:58:45.584Z,13.15
2023-05-08T14:01:25.482Z,13.30
2023-05-08T14:03:55.559Z,13.38
2023-05-08T14:06:26.134Z,15.90
2023-05-08T14:08:56.886Z,15.20
2023-05-08T14:11:26.980Z,16.27
2023-05-08T14:13:55.931Z,14.98
2023-05-08T14:16:25.073Z,12.25
2023-05-08T14:18:54.130Z,12.25
2023-05-08T14:21:24.582Z,13.02
2023-05-08T14:23:53.471Z,13.23
2023-05-08T14:26:22.260Z,13.23
2023-05-08T14:28:51.436Z,13.45
2023-05-08T14:31:20.278Z,14.18
2023-05-08T14:33:48.834Z,17.67
2023-05-08T14:36:17.374Z,17.15
2023-05-08T14:38:47.117Z,16.65
2023-05-08T14:41:15.662Z,15.90
2023-05-08T14:43:44.073Z,16.30
2023-05-08T14:46:12.670Z,16.73
2023-05-08T14:48:41.255Z,14.70
2023-05-08T14:51:09.673Z,14.73
2023-05-08T14:53:38.136Z,14.90
2023-05-08T14:56:09.184Z,15.95
2023-05-08T14:58:37.822Z,15.10
2023-05-08T15:01:06.923Z,15.15
2023-05-08T15:03:35.892Z,15.48
2023-05-08T15:06:05.295Z,15.88
2023-05-08T15:08:34.115Z,14.85
2023-05-08T15:11:02.571Z,15.48
2023-05-08T15:13:32.414Z,15.02
2023-05-08T15:16:05.482Z,14.48
2023-05-08T15:18:33.972Z,15.00
2023-05-08T15:21:02.599Z,15.82
2023-05-08T15:23:30.935Z,14.73
2023-05-08T15:25:59.432Z,15.52
2023-05-08T15:28:28.232Z,14.60
2023-05-08T15:30:58.485Z,15.07
2023-05-08T15:33:28.106Z,16.20
2023-05-08T15:35:56.567Z,16.38
2023-05-08T15:38:25.232Z,16.48
2023-05-08T15:40:54.004Z,16.55
2023-05-08T15:43:23.543Z,19.20
2023-05-08T15:45:52.625Z,14.57
2023-05-08T15:48:23.534Z,13.23
2023-05-08T15:50:51.915Z,13.05
2023-05-08T15:53:20.877Z,13.35
2023-05-08T15:55:49.329Z,11.93
2023-05-08T15:58:17.779Z,8.00
2023-05-08T16:00:46.381Z,12.77
2023-05-08T16:03:15.021Z,8.70
2023-05-08T16:05:44.968Z,7.72
2023-05-08T16:08:13.862Z,6.78
2023-05-08T16:10:42.923Z,5.47
2023-05-08T16:13:11.372Z,5.80
2023-05-08T16:15:40.887Z,7.13
2023-05-08T16:18:09.559Z,9.38
2023-05-08T16:20:38.063Z,9.75
2023-05-08T16:23:08.654Z,8.77
2023-05-08T16:25:37.064Z,9.15
2023-05-08T16:28:07.238Z,9.40
2023-05-08T16:30:35.669Z,8.07
2023-05-08T16:33:04.264Z,7.30
2023-05-08T16:35:33.510Z,7.35
2023-05-08T16:38:03.932Z,7.75
2023-05-08T16:40:34.325Z,7.53
2023-05-08T16:43:03.622Z,6.97
2023-05-08T16:45:32.041Z,6.88
2023-05-08T16:48:09.735Z,6.63
2023-05-08T16:50:38.283Z,6.32
2023-05-08T16:53:06.766Z,6.90
2023-05-08T16:55:36.662Z,7.70
2023-05-08T16:58:07.371Z,6.60
2023-05-08T17:00:35.806Z,7.00
2023-05-08T17:03:05.855Z,7.80
2023-05-08T17:05:35.726Z,9.88
2023-05-08T17:08:04.166Z,10.00
2023-05-08T17:10:32.777Z,11.65
2023-05-08T17:13:02.773Z,10.93
2023-05-08T17:15:31.255Z,12.23
2023-05-08T17:17:59.633Z,11.95
2023-05-08T17:20:28.670Z,12.60
2023-05-08T17:22:57.577Z,12.38
2023-05-08T17:25:26.788Z,14.27
2023-05-08T17:27:56.320Z,14.70
2023-05-08T17:30:27.612Z,14.87
2023-05-08T17:32:56.823Z,14.65
2023-05-08T17:35:26.554Z,16.58
2023-05-08T17:37:55.357Z,17.83
2023-05-08T17:40:26.686Z,16.75
2023-05-08T17:42:55.265Z,17.95
2023-05-08T17:45:25.329Z,16.65
2023-05-08T17:47:53.972Z,18.40
2023-05-08T17:50:23.143Z,16.57
2023-05-08T17:52:51.698Z,15.40
2023-05-08T17:55:20.269Z,16.95
2023-05-08T17:57:48.827Z,16.65
2023-05-08T18:00:18.463Z,16.50
2023-05-08T18:02:48.275Z,17.88
2023-05-08T18:05:16.893Z,16.23
2023-05-08T18:07:45.304Z,15.77
2023-05-08T18:10:13.825Z,16.40
2023-05-08T18:12:42.590Z,18.17
2023-05-08T18:15:12.263Z,17.10
2023-05-08T18:17:41.046Z,16.03
2023-05-08T18:20:12.393Z,16.80
2023-05-08T18:22:41.045Z,16.33
2023-05-08T18:25:10.422Z,16.47
2023-05-08T18:27:38.810Z,18.00
2023-05-08T18:30:10.093Z,17.47
2023-05-08T18:32:38.516Z,17.53
2023-05-08T18:35:11.656Z,17.13
2023-05-08T18:37:39.950Z,17.60
2023-05-08T18:40:10.122Z,17.43
2023-05-08T18:42:38.586Z,17.80
2023-05-08T18:45:09.161Z,17.10
2023-05-08T18:47:37.534Z,17.00
2023-05-08T18:50:11.773Z,18.57
2023-05-08T18:52:40.856Z,18.20
2023-05-08T18:55:10.430Z,18.00
2023-05-08T18:57:39.219Z,17.43
2023-05-08T19:00:09.612Z,16.73
2023-05-08T19:02:38.183Z,17.90
2023-05-08T19:05:09.195Z,16.70
2023-05-08T19:07:39.187Z,16.77
2023-05-08T19:10:10.016Z,16.73
2023-05-08T19:12:38.509Z,16.47
2023-05-08T19:15:09.449Z,16.03
2023-05-08T19:17:38.094Z,17.13
2023-05-08T19:20:09.752Z,17.97
2023-05-08T19:22:39.838Z,15.67
2023-05-08T19:25:09.053Z,17.57
2023-05-08T19:27:37.500Z,17.80
2023-05-08T19:30:08.528Z,19.57
2023-05-08T19:32:37.189Z,18.47
2023-05-08T19:35:06.781Z,19.07
2023-05-08T19:37:35.439Z,21.00
2023-05-08T19:40:06.055Z,21.10
2023-05-08T19:42:34.657Z,21.07
2023-05-08T19:45:03.136Z,19.70
2023-05-08T19:47:31.953Z,23.77
2023-05-08T19:50:00.425Z,21.77
2023-05-08T19:52:28.978Z,22.97
2023-05-08T19:54:58.656Z,24.90
2023-05-08T19:57:28.804Z,24.70
2023-05-08T19:59:58.072Z,26.73
2023-05-08T20:02:28.191Z,31.53
2023-05-08T20:07:29.654Z,31.83
2023-05-08T20:09:58.769Z,28.37
2023-05-08T20:12:28.894Z,29.97
2023-05-08T20:14:57.977Z,28.73
2023-05-08T20:17:26.939Z,29.63
2023-05-08T20:19:55.560Z,27.57
2023-05-08T20:22:25.441Z,27.40
2023-05-08T20:24:53.979Z,24.47
2023-05-08T20:27:23.481Z,26.80
2023-05-08T20:29:53.767Z,26.00
2023-05-08T20:32:22.965Z,24.07
2023-05-08T20:34:52.056Z,26.00
2023-05-08T20:37:20.889Z,26.53
2023-05-08T20:39:49.256Z,28.20
2023-05-08T20:42:17.719Z,26.33
2023-05-08T20:44:46.100Z,27.43
2023-05-08T20:47:15.947Z,29.37
2023-05-08T20:49:44.266Z,32.13
2023-05-08T20:52:12.558Z,29.27
2023-05-08T20:54:41.104Z,29.37
2023-05-08T20:57:09.689Z,33.43
2023-05-08T20:59:39.948Z,30.00
2023-05-08T21:02:08.749Z,28.57
2023-05-08T21:04:38.570Z,29.43
2023-05-08T21:07:07.205Z,30.27
2023-05-08T21:09:35.735Z,30.50
2023-05-08T21:12:04.311Z,31.73
2023-05-08T21:14:32.802Z,29.77
2023-05-08T21:17:01.398Z,31.73
2023-05-08T21:19:31.267Z,30.47
2023-05-08T21:22:01.028Z,34.27
2023-05-08T21:24:29.708Z,30.27
2023-05-08T21:26:59.651Z,28.13
2023-05-08T21:29:28.598Z,27.67
2023-05-08T21:31:57.682Z,27.87
2023-05-08T21:34:26.707Z,27.03
2023-05-08T21:36:55.348Z,29.43
2023-05-08T21:39:25.253Z,28.97
2023-05-08T21:41:53.678Z,27.07
2023-05-08T21:44:22.706Z,30.10
2023-05-08T21:46:51.639Z,27.07
2023-05-08T21:49:23.751Z,24.17
2023-05-08T21:51:53.030Z,26.73
2023-05-08T21:54:24.679Z,26.47
2023-05-08T21:56:55.423Z,28.10
2023-05-08T21:59:23.787Z,26.80
2023-05-08T22:01:53.086Z,27.33
2023-05-08T22:04:22.301Z,29.63
2023-05-08T22:06:50.847Z,28.37
2023-05-08T22:09:19.707Z,27.37
2023-05-08T22:11:48.152Z,27.77
2023-05-08T22:14:17.935Z,27.17
2023-05-08T22:16:46.351Z,31.03
2023-05-08T22:19:14.653Z,29.00
2023-05-08T22:21:43.566Z,29.70
2023-05-08T22:24:12.446Z,29.70
2023-05-08T22:26:40.746Z,31.93
2023-05-08T22:29:12.034Z,31.13
2023-05-08T22:31:42.005Z,30.77
2023-05-08T22:34:10.517Z,30.10
2023-05-08T22:36:39.143Z,30.73
2023-05-08T22:39:10.114Z,29.10
2023-05-08T22:41:38.832Z,28.67
2023-05-08T22:44:08.044Z,29.90
2023-05-08T22:46:37.090Z,28.07
2023-05-08T22:49:07.348Z,31.13
2023-05-08T22:51:36.201Z,32.10
2023-05-08T22:54:04.653Z,29.30
2023-05-08T22:56:33.064Z,30.47
2023-05-08T22:59:01.360Z,30.20
2023-05-08T23:01:29.806Z,30.47
2023-05-08T23:03:58.488Z,30.10
2023-05-08T23:06:28.521Z,33.20
2023-05-08T23:08:56.860Z,32.70
2023-05-08T23:11:26.891Z,31.90
2023-05-08T23:13:55.484Z,33.50
2023-05-08T23:16:23.956Z,32.50
2023-05-08T23:18:53.019Z,34.70
2023-05-08T23:21:21.696Z,34.00
2023-05-08T23:23:52.910Z,35.33
2023-05-08T23:26:22.288Z,37.10
2023-05-08T23:28:50.704Z,36.17
2023-05-08T23:31:19.845Z,43.10
2023-05-08T23:33:48.445Z,38.73
2023-05-08T23:36:17.000Z,43.30
2023-05-08T23:38:45.505Z,45.73
2023-05-08T23:41:15.467Z,41.03
2023-05-08T23:43:43.904Z,40.00
2023-05-08T23:46:12.272Z,39.20
2023-05-08T23:48:40.936Z,40.23
2023-05-08T23:51:12.213Z,38.03
2023-05-08T23:53:40.930Z,37.40
2023-05-08T23:56:09.657Z,38.40
2023-05-08T23:58:39.805Z,35.27
